sensor_id;sensor_type;location;lat;lon;timestamp;P1;durP1;ratioP1;P2;durP2;ratioP2
6531;SDS011;3299;42.004;24.868;2023-12-28T00:01:33;2.25;;;1.52;;
6531;SDS011;3299;42.004;24.868;2023-12-28T00:03:58;1.33;;;1.23;;
6531;SDS011;3299;42.004;24.868;2023-12-28T00:06:24;1.60;;;1.50;;
6531;SDS011;3299;42.004;24.868;2023-12-28T00:08:49;1.10;;;1.10;;
6531;SDS011;3299;42.004;24.868;2023-12-28T00:11:14;1.42;;;1.33;;
6531;SDS011;3299;42.004;24.868;2023-12-28T00:13:40;1.48;;;1.38;;
6531;SDS011;3299;42.004;24.868;2023-12-28T00:16:05;1.48;;;1.38;;
6531;SDS011;3299;42.004;24.868;2023-12-28T00:18:31;1.50;;;1.40;;
6531;SDS011;3299;42.004;24.868;2023-12-28T00:20:56;1.88;;;1.50;;
6531;SDS011;3299;42.004;24.868;2023-12-28T00:23:22;1.35;;;1.10;;
6531;SDS011;3299;42.004;24.868;2023-12-28T00:25:48;1.63;;;1.08;;
6531;SDS011;3299;42.004;24.868;2023-12-28T00:28:13;1.17;;;1.17;;
6531;SDS011;3299;42.004;24.868;2023-12-28T00:30:38;1.30;;;1.20;;
6531;SDS011;3299;42.004;24.868;2023-12-28T00:33:04;1.98;;;1.20;;
6531;SDS011;3299;42.004;24.868;2023-12-28T00:35:30;2.08;;;1.30;;
6531;SDS011;3299;42.004;24.868;2023-12-28T00:37:55;3.38;;;1.17;;
6531;SDS011;3299;42.004;24.868;2023-12-28T00:40:20;1.10;;;1.10;;
6531;SDS011;3299;42.004;24.868;2023-12-28T00:42:47;1.05;;;1.05;;
6531;SDS011;3299;42.004;24.868;2023-12-28T00:45:12;1.60;;;1.10;;
6531;SDS011;3299;42.004;24.868;2023-12-28T00:47:38;1.25;;;1.23;;
6531;SDS011;3299;42.004;24.868;2023-12-28T00:50:03;0.95;;;0.93;;
6531;SDS011;3299;42.004;24.868;2023-12-28T00:52:29;1.45;;;1.20;;
6531;SDS011;3299;42.004;24.868;2023-12-28T00:54:54;1.15;;;1.15;;
6531;SDS011;3299;42.004;24.868;2023-12-28T00:57:20;0.80;;;0.80;;
6531;SDS011;3299;42.004;24.868;2023-12-28T00:59:45;1.20;;;1.10;;
6531;SDS011;3299;42.004;24.868;2023-12-28T01:02:11;1.30;;;1.20;;
6531;SDS011;3299;42.004;24.868;2023-12-28T01:04:36;1.23;;;1.13;;
6531;SDS011;3299;42.004;24.868;2023-12-28T01:07:01;1.45;;;1.35;;
6531;SDS011;3299;42.004;24.868;2023-12-28T01:09:30;0.93;;;0.93;;
6531;SDS011;3299;42.004;24.868;2023-12-28T01:11:57;0.95;;;0.95;;
6531;SDS011;3299;42.004;24.868;2023-12-28T01:14:22;0.73;;;0.73;;
6531;SDS011;3299;42.004;24.868;2023-12-28T01:16:48;0.80;;;0.80;;
6531;SDS011;3299;42.004;24.868;2023-12-28T01:19:13;1.20;;;1.20;;
6531;SDS011;3299;42.004;24.868;2023-12-28T01:21:38;1.58;;;1.48;;
6531;SDS011;3299;42.004;24.868;2023-12-28T01:24:04;1.52;;;1.30;;
6531;SDS011;3299;42.004;24.868;2023-12-28T01:26:30;1.60;;;1.50;;
6531;SDS011;3299;42.004;24.868;2023-12-28T01:28:55;1.48;;;1.30;;
6531;SDS011;3299;42.004;24.868;2023-12-28T01:31:22;2.88;;;1.60;;
6531;SDS011;3299;42.004;24.868;2023-12-28T01:33:47;1.20;;;1.20;;
6531;SDS011;3299;42.004;24.868;2023-12-28T01:36:19;1.38;;;1.27;;
6531;SDS011;3299;42.004;24.868;2023-12-28T01:38:44;1.30;;;1.23;;
6531;SDS011;3299;42.004;24.868;2023-12-28T01:41:10;1.30;;;1.20;;
6531;SDS011;3299;42.004;24.868;2023-12-28T01:43:37;1.45;;;1.35;;
6531;SDS011;3299;42.004;24.868;2023-12-28T01:46:04;1.45;;;1.35;;
6531;SDS011;3299;42.004;24.868;2023-12-28T01:48:30;2.05;;;1.25;;
6531;SDS011;3299;42.004;24.868;2023-12-28T01:50:57;1.50;;;1.40;;
6531;SDS011;3299;42.004;24.868;2023-12-28T01:53:23;1.55;;;1.00;;
6531;SDS011;3299;42.004;24.868;2023-12-28T01:55:49;1.38;;;1.35;;
6531;SDS011;3299;42.004;24.868;2023-12-28T01:58:14;1.38;;;1.30;;
6531;SDS011;3299;42.004;24.868;2023-12-28T02:00:40;1.60;;;1.50;;
6531;SDS011;3299;42.004;24.868;2023-12-28T02:03:07;1.40;;;1.20;;
6531;SDS011;3299;42.004;24.868;2023-12-28T02:05:33;1.40;;;1.30;;
6531;SDS011;3299;42.004;24.868;2023-12-28T02:07:59;1.50;;;1.40;;
6531;SDS011;3299;42.004;24.868;2023-12-28T02:10:24;1.38;;;1.17;;
6531;SDS011;3299;42.004;24.868;2023-12-28T02:12:50;1.33;;;1.30;;
6531;SDS011;3299;42.004;24.868;2023-12-28T02:15:18;1.83;;;1.42;;
6531;SDS011;3299;42.004;24.868;2023-12-28T02:17:47;1.50;;;1.20;;
6531;SDS011;3299;42.004;24.868;2023-12-28T02:20:23;2.40;;;1.10;;
6531;SDS011;3299;42.004;24.868;2023-12-28T02:22:50;1.45;;;1.35;;
6531;SDS011;3299;42.004;24.868;2023-12-28T02:25:16;1.20;;;1.20;;
6531;SDS011;3299;42.004;24.868;2023-12-28T02:27:43;3.65;;;1.17;;
6531;SDS011;3299;42.004;24.868;2023-12-28T02:30:11;1.60;;;1.50;;
6531;SDS011;3299;42.004;24.868;2023-12-28T02:35:09;1.70;;;1.60;;
6531;SDS011;3299;42.004;24.868;2023-12-28T02:37:41;1.42;;;1.33;;
6531;SDS011;3299;42.004;24.868;2023-12-28T02:40:08;4.40;;;1.20;;
6531;SDS011;3299;42.004;24.868;2023-12-28T02:42:34;1.17;;;1.10;;
6531;SDS011;3299;42.004;24.868;2023-12-28T02:45:00;1.23;;;1.10;;
6531;SDS011;3299;42.004;24.868;2023-12-28T02:47:25;1.50;;;1.40;;
6531;SDS011;3299;42.004;24.868;2023-12-28T02:49:50;1.20;;;1.13;;
6531;SDS011;3299;42.004;24.868;2023-12-28T02:52:16;1.58;;;1.48;;
6531;SDS011;3299;42.004;24.868;2023-12-28T02:54:41;1.20;;;1.20;;
6531;SDS011;3299;42.004;24.868;2023-12-28T02:57:06;1.15;;;1.10;;
6531;SDS011;3299;42.004;24.868;2023-12-28T02:59:32;1.40;;;1.30;;
6531;SDS011;3299;42.004;24.868;2023-12-28T03:01:57;1.33;;;1.20;;
6531;SDS011;3299;42.004;24.868;2023-12-28T03:04:23;1.10;;;1.10;;
6531;SDS011;3299;42.004;24.868;2023-12-28T03:06:48;2.10;;;1.55;;
6531;SDS011;3299;42.004;24.868;2023-12-28T03:09:13;1.70;;;1.60;;
6531;SDS011;3299;42.004;24.868;2023-12-28T03:11:39;1.95;;;1.50;;
6531;SDS011;3299;42.004;24.868;2023-12-28T03:14:04;1.50;;;1.20;;
6531;SDS011;3299;42.004;24.868;2023-12-28T03:16:29;1.75;;;1.65;;
6531;SDS011;3299;42.004;24.868;2023-12-28T03:18:55;1.52;;;1.42;;
6531;SDS011;3299;42.004;24.868;2023-12-28T03:21:20;1.30;;;1.10;;
6531;SDS011;3299;42.004;24.868;2023-12-28T03:23:46;1.27;;;1.17;;
6531;SDS011;3299;42.004;24.868;2023-12-28T03:26:11;1.48;;;1.35;;
6531;SDS011;3299;42.004;24.868;2023-12-28T03:28:37;2.30;;;2.17;;
6531;SDS011;3299;42.004;24.868;2023-12-28T03:31:02;1.00;;;1.00;;
6531;SDS011;3299;42.004;24.868;2023-12-28T03:33:28;1.10;;;1.10;;
6531;SDS011;3299;42.004;24.868;2023-12-28T03:35:53;1.10;;;1.10;;
6531;SDS011;3299;42.004;24.868;2023-12-28T03:38:19;1.30;;;1.30;;
6531;SDS011;3299;42.004;24.868;2023-12-28T03:40:44;2.33;;;1.50;;
6531;SDS011;3299;42.004;24.868;2023-12-28T03:43:12;1.42;;;1.10;;
6531;SDS011;3299;42.004;24.868;2023-12-28T03:45:38;2.15;;;1.15;;
6531;SDS011;3299;42.004;24.868;2023-12-28T03:48:03;1.42;;;1.20;;
6531;SDS011;3299;42.004;24.868;2023-12-28T03:50:29;1.88;;;1.20;;
6531;SDS011;3299;42.004;24.868;2023-12-28T03:52:54;1.05;;;1.05;;
6531;SDS011;3299;42.004;24.868;2023-12-28T03:55:20;1.33;;;1.23;;
6531;SDS011;3299;42.004;24.868;2023-12-28T03:57:46;1.30;;;1.10;;
6531;SDS011;3299;42.004;24.868;2023-12-28T04:00:12;1.77;;;1.58;;
6531;SDS011;3299;42.004;24.868;2023-12-28T04:02:39;1.52;;;1.42;;
6531;SDS011;3299;42.004;24.868;2023-12-28T04:05:05;1.23;;;1.23;;
6531;SDS011;3299;42.004;24.868;2023-12-28T04:07:32;1.10;;;1.10;;
6531;SDS011;3299;42.004;24.868;2023-12-28T04:09:57;1.17;;;1.08;;
6531;SDS011;3299;42.004;24.868;2023-12-28T04:12:23;2.33;;;1.50;;
6531;SDS011;3299;42.004;24.868;2023-12-28T04:14:49;1.05;;;1.00;;
6531;SDS011;3299;42.004;24.868;2023-12-28T04:17:14;0.88;;;0.88;;
6531;SDS011;3299;42.004;24.868;2023-12-28T04:19:39;1.00;;;1.00;;
6531;SDS011;3299;42.004;24.868;2023-12-28T04:22:05;3.22;;;0.90;;
6531;SDS011;3299;42.004;24.868;2023-12-28T04:24:30;1.13;;;1.02;;
6531;SDS011;3299;42.004;24.868;2023-12-28T04:26:55;1.73;;;1.00;;
6531;SDS011;3299;42.004;24.868;2023-12-28T04:29:21;2.60;;;1.10;;
6531;SDS011;3299;42.004;24.868;2023-12-28T04:31:46;0.80;;;0.80;;
6531;SDS011;3299;42.004;24.868;2023-12-28T04:34:12;0.93;;;0.93;;
6531;SDS011;3299;42.004;24.868;2023-12-28T04:36:43;2.00;;;1.27;;
6531;SDS011;3299;42.004;24.868;2023-12-28T04:39:09;2.20;;;1.30;;
6531;SDS011;3299;42.004;24.868;2023-12-28T04:41:35;1.20;;;1.10;;
6531;SDS011;3299;42.004;24.868;2023-12-28T04:44:00;2.78;;;2.55;;
6531;SDS011;3299;42.004;24.868;2023-12-28T04:46:26;1.85;;;1.70;;
6531;SDS011;3299;42.004;24.868;2023-12-28T04:48:51;1.48;;;1.38;;
6531;SDS011;3299;42.004;24.868;2023-12-28T04:51:16;1.52;;;1.38;;
6531;SDS011;3299;42.004;24.868;2023-12-28T04:53:42;1.40;;;1.25;;
6531;SDS011;3299;42.004;24.868;2023-12-28T04:56:07;1.50;;;1.40;;
6531;SDS011;3299;42.004;24.868;2023-12-28T04:58:33;1.45;;;1.23;;
6531;SDS011;3299;42.004;24.868;2023-12-28T05:00:58;1.75;;;1.65;;
6531;SDS011;3299;42.004;24.868;2023-12-28T05:03:23;1.95;;;1.35;;
6531;SDS011;3299;42.004;24.868;2023-12-28T05:05:49;2.50;;;1.67;;
6531;SDS011;3299;42.004;24.868;2023-12-28T05:08:14;1.50;;;1.40;;
6531;SDS011;3299;42.004;24.868;2023-12-28T05:10:39;0.90;;;0.90;;
6531;SDS011;3299;42.004;24.868;2023-12-28T05:13:05;1.10;;;1.00;;
6531;SDS011;3299;42.004;24.868;2023-12-28T05:15:30;1.73;;;1.38;;
6531;SDS011;3299;42.004;24.868;2023-12-28T05:17:56;1.38;;;1.27;;
6531;SDS011;3299;42.004;24.868;2023-12-28T05:20:21;1.55;;;1.10;;
6531;SDS011;3299;42.004;24.868;2023-12-28T05:22:46;3.67;;;1.15;;
6531;SDS011;3299;42.004;24.868;2023-12-28T05:25:12;1.40;;;1.30;;
6531;SDS011;3299;42.004;24.868;2023-12-28T05:27:37;0.90;;;0.90;;
6531;SDS011;3299;42.004;24.868;2023-12-28T05:30:03;2.92;;;1.27;;
6531;SDS011;3299;42.004;24.868;2023-12-28T05:32:29;1.42;;;1.33;;
6531;SDS011;3299;42.004;24.868;2023-12-28T05:34:54;1.10;;;1.10;;
6531;SDS011;3299;42.004;24.868;2023-12-28T05:37:19;2.13;;;1.52;;
6531;SDS011;3299;42.004;24.868;2023-12-28T05:39:45;9.30;;;3.65;;
6531;SDS011;3299;42.004;24.868;2023-12-28T05:42:10;3.40;;;1.38;;
6531;SDS011;3299;42.004;24.868;2023-12-28T05:44:35;1.10;;;1.10;;
6531;SDS011;3299;42.004;24.868;2023-12-28T05:47:01;1.00;;;1.00;;
6531;SDS011;3299;42.004;24.868;2023-12-28T05:49:27;1.00;;;1.00;;
6531;SDS011;3299;42.004;24.868;2023-12-28T05:51:53;1.80;;;1.10;;
6531;SDS011;3299;42.004;24.868;2023-12-28T05:54:19;1.52;;;1.42;;
6531;SDS011;3299;42.004;24.868;2023-12-28T05:56:44;1.58;;;1.48;;
6531;SDS011;3299;42.004;24.868;2023-12-28T05:59:10;1.75;;;1.65;;
6531;SDS011;3299;42.004;24.868;2023-12-28T06:01:44;2.60;;;2.40;;
6531;SDS011;3299;42.004;24.868;2023-12-28T06:04:10;4.00;;;3.45;;
6531;SDS011;3299;42.004;24.868;2023-12-28T06:06:36;4.30;;;3.80;;
6531;SDS011;3299;42.004;24.868;2023-12-28T06:09:01;5.63;;;3.40;;
6531;SDS011;3299;42.004;24.868;2023-12-28T06:11:28;6.22;;;4.70;;
6531;SDS011;3299;42.004;24.868;2023-12-28T06:13:53;6.75;;;3.55;;
6531;SDS011;3299;42.004;24.868;2023-12-28T06:16:19;4.90;;;3.13;;
6531;SDS011;3299;42.004;24.868;2023-12-28T06:18:44;6.18;;;2.33;;
6531;SDS011;3299;42.004;24.868;2023-12-28T06:21:10;3.75;;;1.92;;
6531;SDS011;3299;42.004;24.868;2023-12-28T06:23:35;2.55;;;2.33;;
6531;SDS011;3299;42.004;24.868;2023-12-28T06:26:04;3.35;;;1.83;;
6531;SDS011;3299;42.004;24.868;2023-12-28T06:28:31;1.60;;;1.50;;
6531;SDS011;3299;42.004;24.868;2023-12-28T06:30:57;1.10;;;1.10;;
6531;SDS011;3299;42.004;24.868;2023-12-28T06:33:25;1.00;;;1.00;;
6531;SDS011;3299;42.004;24.868;2023-12-28T06:35:51;1.63;;;1.52;;
6531;SDS011;3299;42.004;24.868;2023-12-28T06:38:18;1.00;;;1.00;;
6531;SDS011;3299;42.004;24.868;2023-12-28T06:40:43;1.20;;;1.15;;
6531;SDS011;3299;42.004;24.868;2023-12-28T06:43:08;1.33;;;1.10;;
6531;SDS011;3299;42.004;24.868;2023-12-28T06:45:34;1.70;;;1.10;;
6531;SDS011;3299;42.004;24.868;2023-12-28T06:47:59;2.53;;;1.77;;
6531;SDS011;3299;42.004;24.868;2023-12-28T06:50:24;1.30;;;1.20;;
6531;SDS011;3299;42.004;24.868;2023-12-28T06:52:50;1.15;;;1.10;;
6531;SDS011;3299;42.004;24.868;2023-12-28T06:55:15;2.17;;;0.82;;
6531;SDS011;3299;42.004;24.868;2023-12-28T06:57:41;1.20;;;1.15;;
6531;SDS011;3299;42.004;24.868;2023-12-28T07:00:06;1.98;;;1.38;;
6531;SDS011;3299;42.004;24.868;2023-12-28T07:02:32;1.42;;;1.23;;
6531;SDS011;3299;42.004;24.868;2023-12-28T07:04:58;2.00;;;1.58;;
6531;SDS011;3299;42.004;24.868;2023-12-28T07:07:23;5.07;;;3.15;;
6531;SDS011;3299;42.004;24.868;2023-12-28T07:09:48;3.58;;;2.05;;
6531;SDS011;3299;42.004;24.868;2023-12-28T07:12:14;1.10;;;1.10;;
6531;SDS011;3299;42.004;24.868;2023-12-28T07:14:40;3.83;;;2.60;;
6531;SDS011;3299;42.004;24.868;2023-12-28T07:17:05;1.63;;;1.52;;
6531;SDS011;3299;42.004;24.868;2023-12-28T07:19:31;3.20;;;1.27;;
6531;SDS011;3299;42.004;24.868;2023-12-28T07:21:56;1.20;;;1.13;;
6531;SDS011;3299;42.004;24.868;2023-12-28T07:24:23;1.50;;;1.40;;
6531;SDS011;3299;42.004;24.868;2023-12-28T07:26:48;1.60;;;1.02;;
6531;SDS011;3299;42.004;24.868;2023-12-28T07:29:13;1.50;;;1.40;;
6531;SDS011;3299;42.004;24.868;2023-12-28T07:31:39;1.83;;;1.67;;
6531;SDS011;3299;42.004;24.868;2023-12-28T07:34:04;2.70;;;1.80;;
6531;SDS011;3299;42.004;24.868;2023-12-28T07:36:30;2.88;;;2.10;;
6531;SDS011;3299;42.004;24.868;2023-12-28T07:38:56;4.70;;;2.45;;
6531;SDS011;3299;42.004;24.868;2023-12-28T07:41:21;2.60;;;2.40;;
6531;SDS011;3299;42.004;24.868;2023-12-28T07:43:46;1.40;;;1.30;;
6531;SDS011;3299;42.004;24.868;2023-12-28T07:46:12;1.60;;;1.50;;
6531;SDS011;3299;42.004;24.868;2023-12-28T07:48:37;2.30;;;2.20;;
6531;SDS011;3299;42.004;24.868;2023-12-28T07:51:06;2.10;;;2.00;;
6531;SDS011;3299;42.004;24.868;2023-12-28T07:53:32;2.33;;;2.13;;
6531;SDS011;3299;42.004;24.868;2023-12-28T07:55:58;1.83;;;1.60;;
6531;SDS011;3299;42.004;24.868;2023-12-28T07:58:23;2.10;;;1.60;;
6531;SDS011;3299;42.004;24.868;2023-12-28T08:00:49;2.00;;;1.60;;
6531;SDS011;3299;42.004;24.868;2023-12-28T08:03:15;2.85;;;2.17;;
6531;SDS011;3299;42.004;24.868;2023-12-28T08:05:41;13.48;;;5.68;;
6531;SDS011;3299;42.004;24.868;2023-12-28T08:08:06;16.60;;;8.43;;
6531;SDS011;3299;42.004;24.868;2023-12-28T08:10:31;21.58;;;10.25;;
6531;SDS011;3299;42.004;24.868;2023-12-28T08:12:57;18.67;;;9.10;;
6531;SDS011;3299;42.004;24.868;2023-12-28T08:15:23;23.48;;;10.45;;
6531;SDS011;3299;42.004;24.868;2023-12-28T08:17:48;22.63;;;11.98;;
6531;SDS011;3299;42.004;24.868;2023-12-28T08:20:14;20.88;;;10.77;;
6531;SDS011;3299;42.004;24.868;2023-12-28T08:22:39;26.60;;;10.98;;
6531;SDS011;3299;42.004;24.868;2023-12-28T08:25:04;17.52;;;9.07;;
6531;SDS011;3299;42.004;24.868;2023-12-28T08:27:30;22.75;;;10.38;;
6531;SDS011;3299;42.004;24.868;2023-12-28T08:29:55;28.05;;;11.18;;
6531;SDS011;3299;42.004;24.868;2023-12-28T08:32:21;20.08;;;9.93;;
6531;SDS011;3299;42.004;24.868;2023-12-28T08:34:46;19.90;;;9.75;;
6531;SDS011;3299;42.004;24.868;2023-12-28T08:37:12;14.13;;;6.13;;
6531;SDS011;3299;42.004;24.868;2023-12-28T08:39:39;4.95;;;3.35;;
6531;SDS011;3299;42.004;24.868;2023-12-28T08:42:05;5.32;;;3.40;;
6531;SDS011;3299;42.004;24.868;2023-12-28T08:44:30;6.68;;;3.15;;
6531;SDS011;3299;42.004;24.868;2023-12-28T08:46:55;3.65;;;2.75;;
6531;SDS011;3299;42.004;24.868;2023-12-28T08:49:21;3.00;;;2.53;;
6531;SDS011;3299;42.004;24.868;2023-12-28T08:51:47;8.40;;;3.78;;
6531;SDS011;3299;42.004;24.868;2023-12-28T08:54:12;7.07;;;4.05;;
6531;SDS011;3299;42.004;24.868;2023-12-28T08:56:39;9.00;;;4.90;;
6531;SDS011;3299;42.004;24.868;2023-12-28T08:59:04;10.30;;;5.45;;
6531;SDS011;3299;42.004;24.868;2023-12-28T09:01:30;15.27;;;7.22;;
6531;SDS011;3299;42.004;24.868;2023-12-28T09:03:55;15.52;;;8.07;;
6531;SDS011;3299;42.004;24.868;2023-12-28T09:06:21;13.35;;;7.55;;
6531;SDS011;3299;42.004;24.868;2023-12-28T09:08:49;14.15;;;8.13;;
6531;SDS011;3299;42.004;24.868;2023-12-28T09:11:15;13.57;;;7.50;;
6531;SDS011;3299;42.004;24.868;2023-12-28T09:13:41;13.30;;;7.55;;
6531;SDS011;3299;42.004;24.868;2023-12-28T09:16:13;10.00;;;6.60;;
6531;SDS011;3299;42.004;24.868;2023-12-28T09:18:39;11.63;;;5.75;;
6531;SDS011;3299;42.004;24.868;2023-12-28T09:21:05;9.30;;;5.25;;
6531;SDS011;3299;42.004;24.868;2023-12-28T09:23:32;8.63;;;5.80;;
6531;SDS011;3299;42.004;24.868;2023-12-28T09:26:01;8.13;;;5.40;;
6531;SDS011;3299;42.004;24.868;2023-12-28T09:28:31;8.57;;;5.70;;
6531;SDS011;3299;42.004;24.868;2023-12-28T09:30:57;7.05;;;4.95;;
6531;SDS011;3299;42.004;24.868;2023-12-28T09:33:22;8.18;;;5.10;;
6531;SDS011;3299;42.004;24.868;2023-12-28T09:35:48;14.40;;;5.97;;
6531;SDS011;3299;42.004;24.868;2023-12-28T09:38:13;9.30;;;5.57;;
6531;SDS011;3299;42.004;24.868;2023-12-28T09:40:43;9.10;;;6.43;;
6531;SDS011;3299;42.004;24.868;2023-12-28T09:45:54;13.38;;;7.22;;
6531;SDS011;3299;42.004;24.868;2023-12-28T09:48:20;17.55;;;8.50;;
6531;SDS011;3299;42.004;24.868;2023-12-28T09:50:50;12.07;;;7.07;;
6531;SDS011;3299;42.004;24.868;2023-12-28T09:53:19;15.63;;;7.20;;
6531;SDS011;3299;42.004;24.868;2023-12-28T09:55:44;12.00;;;6.90;;
6531;SDS011;3299;42.004;24.868;2023-12-28T09:58:11;11.63;;;6.82;;
6531;SDS011;3299;42.004;24.868;2023-12-28T10:00:42;8.55;;;6.32;;
6531;SDS011;3299;42.004;24.868;2023-12-28T10:03:09;11.43;;;6.15;;
6531;SDS011;3299;42.004;24.868;2023-12-28T10:05:34;9.15;;;6.07;;
6531;SDS011;3299;42.004;24.868;2023-12-28T10:07:59;11.27;;;5.95;;
6531;SDS011;3299;42.004;24.868;2023-12-28T10:10:25;10.27;;;6.50;;
6531;SDS011;3299;42.004;24.868;2023-12-28T10:12:50;12.88;;;5.97;;
6531;SDS011;3299;42.004;24.868;2023-12-28T10:15:16;11.50;;;6.90;;
6531;SDS011;3299;42.004;24.868;2023-12-28T10:17:41;9.68;;;5.60;;
6531;SDS011;3299;42.004;24.868;2023-12-28T10:20:07;7.60;;;5.60;;
6531;SDS011;3299;42.004;24.868;2023-12-28T10:22:35;8.63;;;5.45;;
6531;SDS011;3299;42.004;24.868;2023-12-28T10:25:04;6.63;;;5.28;;
6531;SDS011;3299;42.004;24.868;2023-12-28T10:27:30;9.70;;;7.03;;
6531;SDS011;3299;42.004;24.868;2023-12-28T10:29:56;11.90;;;5.65;;
6531;SDS011;3299;42.004;24.868;2023-12-28T10:32:22;9.80;;;5.10;;
6531;SDS011;3299;42.004;24.868;2023-12-28T10:34:53;8.52;;;5.13;;
6531;SDS011;3299;42.004;24.868;2023-12-28T10:37:20;6.57;;;5.30;;
6531;SDS011;3299;42.004;24.868;2023-12-28T10:39:47;11.18;;;5.40;;
6531;SDS011;3299;42.004;24.868;2023-12-28T10:42:16;9.40;;;5.22;;
6531;SDS011;3299;42.004;24.868;2023-12-28T10:44:53;10.23;;;5.95;;
6531;SDS011;3299;42.004;24.868;2023-12-28T10:47:25;11.20;;;6.25;;
6531;SDS011;3299;42.004;24.868;2023-12-28T10:49:53;10.55;;;6.00;;
6531;SDS011;3299;42.004;24.868;2023-12-28T10:52:24;11.25;;;5.65;;
6531;SDS011;3299;42.004;24.868;2023-12-28T10:57:49;11.30;;;5.93;;
6531;SDS011;3299;42.004;24.868;2023-12-28T11:00:24;13.18;;;6.38;;
6531;SDS011;3299;42.004;24.868;2023-12-28T11:02:52;9.98;;;5.70;;
6531;SDS011;3299;42.004;24.868;2023-12-28T11:05:21;13.02;;;5.75;;
6531;SDS011;3299;42.004;24.868;2023-12-28T11:07:48;9.95;;;5.93;;
6531;SDS011;3299;42.004;24.868;2023-12-28T11:10:15;12.60;;;5.70;;
6531;SDS011;3299;42.004;24.868;2023-12-28T11:12:42;7.97;;;5.63;;
6531;SDS011;3299;42.004;24.868;2023-12-28T11:15:09;13.35;;;5.65;;
6531;SDS011;3299;42.004;24.868;2023-12-28T11:17:37;12.15;;;5.53;;
6531;SDS011;3299;42.004;24.868;2023-12-28T11:20:02;10.10;;;5.97;;
6531;SDS011;3299;42.004;24.868;2023-12-28T11:22:30;11.05;;;5.85;;
6531;SDS011;3299;42.004;24.868;2023-12-28T11:24:56;9.68;;;5.28;;
6531;SDS011;3299;42.004;24.868;2023-12-28T11:27:21;8.75;;;4.25;;
6531;SDS011;3299;42.004;24.868;2023-12-28T11:29:48;7.80;;;4.13;;
6531;SDS011;3299;42.004;24.868;2023-12-28T11:32:14;7.07;;;4.03;;
6531;SDS011;3299;42.004;24.868;2023-12-28T11:34:39;8.13;;;4.63;;
6531;SDS011;3299;42.004;24.868;2023-12-28T11:37:16;9.95;;;5.18;;
6531;SDS011;3299;42.004;24.868;2023-12-28T11:39:45;10.02;;;5.78;;
6531;SDS011;3299;42.004;24.868;2023-12-28T11:42:13;26.88;;;12.88;;
6531;SDS011;3299;42.004;24.868;2023-12-28T11:44:45;34.67;;;19.27;;
6531;SDS011;3299;42.004;24.868;2023-12-28T11:49:37;13.35;;;6.75;;
6531;SDS011;3299;42.004;24.868;2023-12-28T11:52:05;12.07;;;8.27;;
6531;SDS011;3299;42.004;24.868;2023-12-28T11:54:30;13.57;;;8.15;;
6531;SDS011;3299;42.004;24.868;2023-12-28T11:56:56;12.93;;;7.20;;
6531;SDS011;3299;42.004;24.868;2023-12-28T11:59:21;12.27;;;6.47;;
6531;SDS011;3299;42.004;24.868;2023-12-28T12:01:53;10.32;;;6.00;;
6531;SDS011;3299;42.004;24.868;2023-12-28T12:04:19;13.88;;;6.38;;
6531;SDS011;3299;42.004;24.868;2023-12-28T12:06:45;11.50;;;5.25;;
6531;SDS011;3299;42.004;24.868;2023-12-28T12:09:15;12.35;;;6.72;;
6531;SDS011;3299;42.004;24.868;2023-12-28T12:11:41;9.18;;;5.88;;
6531;SDS011;3299;42.004;24.868;2023-12-28T12:14:09;10.32;;;5.45;;
6531;SDS011;3299;42.004;24.868;2023-12-28T12:16:36;8.85;;;6.22;;
6531;SDS011;3299;42.004;24.868;2023-12-28T12:19:03;9.05;;;5.90;;
6531;SDS011;3299;42.004;24.868;2023-12-28T12:21:32;11.38;;;5.88;;
6531;SDS011;3299;42.004;24.868;2023-12-28T12:23:58;10.45;;;5.85;;
6531;SDS011;3299;42.004;24.868;2023-12-28T12:26:24;9.18;;;5.90;;
6531;SDS011;3299;42.004;24.868;2023-12-28T12:28:51;14.07;;;6.70;;
6531;SDS011;3299;42.004;24.868;2023-12-28T12:31:16;10.73;;;6.32;;
6531;SDS011;3299;42.004;24.868;2023-12-28T12:33:42;13.35;;;6.72;;
6531;SDS011;3299;42.004;24.868;2023-12-28T12:36:08;10.10;;;5.90;;
6531;SDS011;3299;42.004;24.868;2023-12-28T12:38:34;14.85;;;6.00;;
6531;SDS011;3299;42.004;24.868;2023-12-28T12:40:59;9.07;;;6.10;;
6531;SDS011;3299;42.004;24.868;2023-12-28T12:43:25;9.30;;;5.40;;
6531;SDS011;3299;42.004;24.868;2023-12-28T12:45:52;9.85;;;5.78;;
6531;SDS011;3299;42.004;24.868;2023-12-28T12:48:17;11.45;;;5.95;;
6531;SDS011;3299;42.004;24.868;2023-12-28T12:50:43;8.57;;;5.82;;
6531;SDS011;3299;42.004;24.868;2023-12-28T12:53:09;9.98;;;5.97;;
6531;SDS011;3299;42.004;24.868;2023-12-28T12:55:35;9.85;;;5.53;;
6531;SDS011;3299;42.004;24.868;2023-12-28T12:58:04;10.13;;;6.28;;
6531;SDS011;3299;42.004;24.868;2023-12-28T13:00:29;11.73;;;6.07;;
6531;SDS011;3299;42.004;24.868;2023-12-28T13:02:55;9.60;;;5.65;;
6531;SDS011;3299;42.004;24.868;2023-12-28T13:05:23;8.10;;;5.30;;
6531;SDS011;3299;42.004;24.868;2023-12-28T13:07:50;10.77;;;5.95;;
6531;SDS011;3299;42.004;24.868;2023-12-28T13:10:15;12.90;;;6.20;;
6531;SDS011;3299;42.004;24.868;2023-12-28T13:12:41;9.50;;;6.05;;
6531;SDS011;3299;42.004;24.868;2023-12-28T13:15:07;12.02;;;5.85;;
6531;SDS011;3299;42.004;24.868;2023-12-28T13:17:34;12.52;;;6.05;;
6531;SDS011;3299;42.004;24.868;2023-12-28T13:20:01;6.50;;;5.22;;
6531;SDS011;3299;42.004;24.868;2023-12-28T13:22:27;12.02;;;5.82;;
6531;SDS011;3299;42.004;24.868;2023-12-28T13:24:52;11.02;;;5.65;;
6531;SDS011;3299;42.004;24.868;2023-12-28T13:27:17;7.75;;;4.80;;
6531;SDS011;3299;42.004;24.868;2023-12-28T13:29:43;7.30;;;5.22;;
6531;SDS011;3299;42.004;24.868;2023-12-28T13:32:09;8.82;;;5.18;;
6531;SDS011;3299;42.004;24.868;2023-12-28T13:34:34;10.77;;;4.60;;
6531;SDS011;3299;42.004;24.868;2023-12-28T13:36:59;8.65;;;4.78;;
6531;SDS011;3299;42.004;24.868;2023-12-28T13:39:26;8.10;;;4.93;;
6531;SDS011;3299;42.004;24.868;2023-12-28T13:41:53;6.70;;;4.88;;
6531;SDS011;3299;42.004;24.868;2023-12-28T13:44:19;9.02;;;4.82;;
6531;SDS011;3299;42.004;24.868;2023-12-28T13:46:44;9.07;;;4.00;;
6531;SDS011;3299;42.004;24.868;2023-12-28T13:49:10;5.65;;;4.30;;
6531;SDS011;3299;42.004;24.868;2023-12-28T13:51:36;11.40;;;5.50;;
6531;SDS011;3299;42.004;24.868;2023-12-28T13:54:01;8.98;;;4.97;;
6531;SDS011;3299;42.004;24.868;2023-12-28T13:56:27;11.82;;;5.07;;
6531;SDS011;3299;42.004;24.868;2023-12-28T13:58:53;9.38;;;3.97;;
6531;SDS011;3299;42.004;24.868;2023-12-28T14:01:19;11.60;;;4.35;;
6531;SDS011;3299;42.004;24.868;2023-12-28T14:03:45;5.88;;;3.80;;
6531;SDS011;3299;42.004;24.868;2023-12-28T14:06:14;6.45;;;4.13;;
6531;SDS011;3299;42.004;24.868;2023-12-28T14:08:40;6.95;;;4.35;;
6531;SDS011;3299;42.004;24.868;2023-12-28T14:11:06;7.20;;;4.45;;
6531;SDS011;3299;42.004;24.868;2023-12-28T14:13:31;7.32;;;4.22;;
6531;SDS011;3299;42.004;24.868;2023-12-28T14:15:56;8.10;;;4.65;;
6531;SDS011;3299;42.004;24.868;2023-12-28T14:18:22;8.07;;;4.00;;
6531;SDS011;3299;42.004;24.868;2023-12-28T14:20:47;9.30;;;4.35;;
6531;SDS011;3299;42.004;24.868;2023-12-28T14:23:13;6.20;;;3.90;;
6531;SDS011;3299;42.004;24.868;2023-12-28T14:25:38;5.30;;;3.60;;
6531;SDS011;3299;42.004;24.868;2023-12-28T14:28:04;7.75;;;4.07;;
6531;SDS011;3299;42.004;24.868;2023-12-28T14:30:30;4.60;;;3.83;;
6531;SDS011;3299;42.004;24.868;2023-12-28T14:32:56;6.43;;;4.47;;
6531;SDS011;3299;42.004;24.868;2023-12-28T14:35:21;6.63;;;4.30;;
6531;SDS011;3299;42.004;24.868;2023-12-28T14:37:47;9.57;;;3.70;;
6531;SDS011;3299;42.004;24.868;2023-12-28T14:40:13;7.47;;;4.18;;
6531;SDS011;3299;42.004;24.868;2023-12-28T14:42:38;10.25;;;4.45;;
6531;SDS011;3299;42.004;24.868;2023-12-28T14:45:04;16.83;;;4.75;;
6531;SDS011;3299;42.004;24.868;2023-12-28T14:47:30;6.53;;;4.13;;
6531;SDS011;3299;42.004;24.868;2023-12-28T14:49:56;14.82;;;4.95;;
6531;SDS011;3299;42.004;24.868;2023-12-28T14:52:24;10.07;;;5.30;;
6531;SDS011;3299;42.004;24.868;2023-12-28T14:54:50;8.38;;;4.38;;
6531;SDS011;3299;42.004;24.868;2023-12-28T14:57:22;9.55;;;4.88;;
6531;SDS011;3299;42.004;24.868;2023-12-28T14:59:47;7.10;;;4.60;;
6531;SDS011;3299;42.004;24.868;2023-12-28T15:02:13;7.00;;;5.10;;